Time;durP1;ratioP1;P1;durP2;ratioP2;P2;SDS_P1;SDS_P2;PMS_P1;PMS_P2;Temp;Humidity;BMP_temperature;BMP_pressure;BME280_temperature;BME280_humidity;BME280_pressure;Samples;Min_cycle;Max_cycle;Signal;HPM_P1;HPM_P2
2022/06/03 00:00:07;;;;;;;0.55;0.55;;;20.10;56.60;;;;;;5014397;28;43428;-62
2022/06/03 00:03:15;;;;;;;0.63;0.63;;;20.10;56.60;;;;;;5015062;28;43578;-61
2022/06/03 00:06:21;;;;;;;0.50;0.50;;;20.00;56.60;;;;;;4993429;28;43509;-62
2022/06/03 00:09:17;;;;;;;1.45;0.70;;;20.10;56.60;;;;;;5024552;28;43754;-61
2022/06/03 00:11:57;;;;;;;0.63;0.63;;;20.00;56.60;;;;;;5009383;28;43401;-61
2022/06/03 00:15:01;;;;;;;0.50;0.50;;;20.00;56.60;;;;;;5017331;28;43496;-62
2022/06/03 00:18:22;;;;;;;0.55;0.55;;;20.00;56.60;;;;;;5022145;28;43484;-61
2022/06/03 00:20:59;;;;;;;0.73;0.73;;;20.00;56.60;;;;;;5003218;28;45009;-62
2022/06/03 00:24:03;;;;;;;0.65;0.65;;;20.00;56.60;;;;;;5016578;28;43572;-62
2022/06/03 00:26:42;;;;;;;0.68;0.68;;;20.00;56.60;;;;;;5018893;28;43482;-62
2022/06/03 00:29:37;;;;;;;0.75;0.75;;;20.00;56.60;;;;;;5008037;28;43504;-61
2022/06/03 00:32:05;;;;;;;0.50;0.50;;;19.90;56.60;;;;;;5014356;28;43821;-61
2022/06/03 00:34:44;;;;;;;0.43;0.43;;;19.90;56.60;;;;;;5018970;28;43380;-62
2022/06/03 00:37:33;;;;;;;0.60;0.60;;;19.90;56.70;;;;;;5024874;28;43390;-61
2022/06/03 00:40:29;;;;;;;0.95;0.63;;;19.90;56.60;;;;;;5014723;28;43426;-61
2022/06/03 00:42:59;;;;;;;0.50;0.50;;;20.00;56.60;;;;;;5013462;28;43801;-61
2022/06/03 00:45:46;;;;;;;0.80;0.70;;;19.90;56.60;;;;;;5013799;28;43617;-61
2022/06/03 00:48:36;;;;;;;0.45;0.45;;;19.90;56.60;;;;;;5024237;28;43481;-61
2022/06/03 00:51:18;;;;;;;0.50;0.50;;;19.90;56.60;;;;;;5010663;28;43459;-62
2022/06/03 00:54:40;;;;;;;0.68;0.68;;;19.90;56.60;;;;;;5015131;28;45111;-62
2022/06/03 00:57:26;;;;;;;;;;;19.90;56.50;;;;;;4974076;28;43522;-62
2022/06/03 00:59:59;;;;;;;0.60;0.60;;;19.90;56.60;;;;;;5010530;28;43447;-62
2022/06/03 01:02:43;;;;;;;0.60;0.60;;;19.90;56.70;;;;;;5015845;28;43413;-62
2022/06/03 01:05:48;;;;;;;0.60;0.60;;;19.80;56.60;;;;;;5025284;28;44312;-62
2022/06/03 01:08:21;;;;;;;0.57;0.57;;;19.80;56.60;;;;;;5010427;28;43694;-62
2022/06/03 01:11:07;;;;;;;0.70;0.70;;;19.90;56.60;;;;;;5019639;28;43465;-62
2022/06/03 01:14:06;;;;;;;0.50;0.50;;;19.80;56.60;;;;;;5022448;28;43521;-61
2022/06/03 01:16:45;;;;;;;0.50;0.50;;;19.80;56.60;;;;;;5019434;28;44058;-61
2022/06/03 01:20:10;;;;;;;0.98;0.88;;;19.80;56.60;;;;;;5017123;28;43447;-61
2022/06/03 01:22:59;;;;;;;0.52;0.50;;;19.80;56.60;;;;;;5022822;28;43436;-62
2022/06/03 01:25:38;;;;;;;0.60;0.60;;;19.80;56.60;;;;;;5023510;28;43443;-61
2022/06/03 01:28:42;;;;;;;0.70;0.70;;;19.80;56.60;;;;;;5011489;28;44670;-62
2022/06/03 01:31:41;;;;;;;0.50;0.50;;;19.80;56.50;;;;;;5015113;28;43507;-61
2022/06/03 01:34:18;;;;;;;0.70;0.70;;;19.80;56.60;;;;;;5010418;28;43539;-61
2022/06/03 01:37:07;;;;;;;0.70;0.70;;;19.70;56.60;;;;;;5013363;28;43403;-61
2022/06/03 01:39:34;;;;;;;0.60;0.60;;;19.70;56.60;;;;;;5017046;28;43826;-62
2022/06/03 01:42:23;;;;;;;0.60;0.60;;;19.70;56.50;;;;;;5028027;28;43526;-61
2022/06/03 01:45:35;;;;;;;0.75;0.75;;;19.70;56.50;;;;;;5018442;28;43453;-62
2022/06/03 01:48:03;;;;;;;0.52;0.52;;;19.70;56.50;;;;;;4998616;28;43469;-62
2022/06/03 01:51:14;;;;;;;0.55;0.55;;;19.70;56.60;;;;;;5020323;28;45067;-61
2022/06/03 01:54:09;;;;;;;0.60;0.60;;;19.70;56.50;;;;;;5019350;28;43476;-62
2022/06/03 01:57:02;;;;;;;0.55;0.55;;;19.70;56.60;;;;;;5012709;28;43510;-62
2022/06/03 02:00:06;;;;;;;0.60;0.60;;;19.60;56.50;;;;;;5019583;28;43575;-62
2022/06/03 02:02:37;;;;;;;0.90;0.90;;;19.70;56.50;;;;;;5012489;28;44842;-61
2022/06/03 02:05:16;;;;;;;0.70;0.70;;;19.70;56.60;;;;;;5014320;28;43491;-62
2022/06/03 02:08:02;;;;;;;0.70;0.70;;;19.70;56.50;;;;;;5019331;28;43551;-61
2022/06/03 02:10:41;;;;;;;0.70;0.70;;;19.60;56.50;;;;;;5025190;28;43523;-61
2022/06/03 02:13:50;;;;;;;0.68;0.60;;;19.60;56.40;;;;;;5010354;28;43983;-61
2022/06/03 02:16:20;;;;;;;0.63;0.63;;;19.60;56.50;;;;;;5013437;28;43499;-62
2022/06/03 02:19:25;;;;;;;0.68;0.68;;;19.60;56.50;;;;;;5021292;28;43491;-61
2022/06/03 02:21:58;;;;;;;0.60;0.60;;;19.60;56.50;;;;;;5011635;28;43436;-62
2022/06/03 02:24:51;;;;;;;0.60;0.60;;;19.60;56.50;;;;;;5017442;28;43868;-61
2022/06/03 02:27:49;;;;;;;0.68;0.68;;;19.60;56.50;;;;;;5021420;28;43446;-61
2022/06/03 02:30:30;;;;;;;0.60;0.60;;;19.50;56.50;;;;;;5012480;28;43434;-61
2022/06/03 02:33:00;;;;;;;0.70;0.70;;;19.50;56.60;;;;;;5012264;28;43403;-61
2022/06/03 02:35:46;;;;;;;2.35;0.50;;;19.50;56.60;;;;;;5019697;28;44956;-61
2022/06/03 02:38:49;;;;;;;0.63;0.63;;;19.50;56.50;;;;;;5023688;28;43907;-62
2022/06/03 02:41:48;;;;;;;0.70;0.70;;;19.50;56.50;;;;;;4981887;28;43531;-61
2022/06/03 02:44:43;;;;;;;0.50;0.50;;;19.50;56.50;;;;;;5015475;28;43475;-61
2022/06/03 02:47:49;;;;;;;0.52;0.52;;;19.50;56.50;;;;;;5005161;28;44730;-62
2022/06/03 02:50:33;;;;;;;0.70;0.70;;;19.50;56.60;;;;;;5010536;28;43867;-61
2022/06/03 02:53:51;;;;;;;0.52;0.52;;;19.40;56.60;;;;;;5016112;28;43435;-61
2022/06/03 02:56:28;;;;;;;0.60;0.60;;;19.50;56.60;;;;;;5009209;28;43724;-61
2022/06/03 02:59:24;;;;;;;0.40;0.40;;;19.40;56.60;;;;;;5008031;28;44722;-61
2022/06/03 03:02:10;;;;;;;0.65;0.65;;;19.40;56.60;;;;;;5013048;28;43537;-62
2022/06/03 03:04:46;;;;;;;0.68;0.68;;;19.40;56.60;;;;;;5021560;28;43486;-61
2022/06/03 03:07:52;;;;;;;0.93;0.88;;;19.40;56.50;;;;;;5012948;28;43448;-61
2022/06/03 03:10:46;;;;;;;0.50;0.50;;;19.40;56.60;;;;;;5013995;28;43796;-61
2022/06/03 03:13:41;;;;;;;0.50;0.50;;;19.40;56.60;;;;;;5013247;28;43471;-62
2022/06/03 03:16:45;;;;;;;0.60;0.60;;;19.40;56.60;;;;;;5015112;28;43961;-61
2022/06/03 03:19:16;;;;;;;0.55;0.52;;;19.40;56.60;;;;;;5011965;28;43597;-61
2022/06/03 03:21:49;;;;;;;0.60;0.55;;;19.30;56.60;;;;;;5021431;28;43875;-62
2022/06/03 03:24:47;;;;;;;0.65;0.65;;;19.30;56.60;;;;;;5017233;28;43448;-61
2022/06/03 03:27:45;;;;;;;0.60;0.60;;;19.30;56.50;;;;;;5011158;28;43502;-62
2022/06/03 03:30:29;;;;;;;0.70;0.70;;;19.30;56.60;;;;;;5014855;28;43498;-61
2022/06/03 03:33:06;;;;;;;0.70;0.70;;;19.30;56.60;;;;;;5022076;28;45015;-62
2022/06/03 03:35:34;;;;;;;0.60;0.60;;;19.30;56.60;;;;;;5009892;28;43492;-61
2022/06/03 03:38:13;;;;;;;0.70;0.70;;;19.30;56.60;;;;;;5010951;28;43495;-61
2022/06/03 03:40:52;;;;;;;0.60;0.60;;;19.30;56.60;;;;;;5012398;28;43961;-61
2022/06/03 03:43:28;;;;;;;0.57;0.57;;;19.30;56.70;;;;;;5033181;28;44047;-62
2022/06/03 03:46:15;;;;;;;0.50;0.50;;;19.30;56.60;;;;;;5008641;28;44026;-62
2022/06/03 03:49:03;;;;;;;0.80;0.80;;;19.20;56.60;;;;;;5011383;28;43438;-62
2022/06/03 03:52:08;;;;;;;1.00;0.60;;;19.30;56.70;;;;;;5016147;28;43531;-61
2022/06/03 03:54:58;;;;;;;0.60;0.60;;;19.20;56.60;;;;;;5008214;28;43744;-61
2022/06/03 03:57:43;;;;;;;0.55;0.55;;;19.20;56.60;;;;;;5012010;28;43503;-61
2022/06/03 04:00:58;;;;;;;0.50;0.50;;;19.20;56.70;;;;;;5012600;28;43427;-61
2022/06/03 04:03:55;;;;;;;0.70;0.70;;;19.20;56.70;;;;;;5006703;28;43478;-61
2022/06/03 04:06:47;;;;;;;0.43;0.43;;;19.20;56.80;;;;;;5016339;28;46404;-62
2022/06/03 04:09:35;;;;;;;0.70;0.70;;;19.20;56.70;;;;;;5019537;28;43663;-62
2022/06/03 04:12:20;;;;;;;0.70;0.70;;;19.10;56.70;;;;;;5012324;28;43478;-61
2022/06/03 04:15:24;;;;;;;0.52;0.52;;;19.10;56.70;;;;;;5011818;28;43439;-61
2022/06/03 04:18:31;;;;;;;0.65;0.65;;;19.10;56.70;;;;;;5011425;28;43810;-61
2022/06/03 04:21:43;;;;;;;0.65;0.65;;;19.10;56.70;;;;;;5009585;28;43474;-61
2022/06/03 04:24:48;;;;;;;0.77;0.77;;;19.10;56.70;;;;;;5010956;28;43609;-61
2022/06/03 04:27:40;;;;;;;0.57;0.57;;;19.10;56.80;;;;;;5021921;28;43473;-61
2022/06/03 04:30:37;;;;;;;0.60;0.60;;;19.10;56.80;;;;;;5025816;28;45023;-62
2022/06/03 04:33:40;;;;;;;0.77;0.77;;;19.10;56.80;;;;;;5011167;28;43799;-61
2022/06/03 04:36:29;;;;;;;0.50;0.50;;;19.10;56.80;;;;;;5016339;28;43522;-62
2022/06/03 04:39:26;;;;;;;0.73;0.70;;;19.10;56.80;;;;;;5020088;28;43493;-62
2022/06/03 04:42:22;;;;;;;0.60;0.60;;;19.10;56.80;;;;;;5012354;28;43987;-62
2022/06/03 04:44:58;;;;;;;0.70;0.70;;;19.10;56.90;;;;;;5019791;28;44126;-61
2022/06/03 04:48:04;;;;;;;0.65;0.65;;;19.00;56.80;;;;;;5024500;28;43484;-62
2022/06/03 04:50:56;;;;;;;0.57;0.57;;;19.10;56.80;;;;;;5009842;28;43467;-61
2022/06/03 04:53:50;;;;;;;0.52;0.52;;;19.00;56.80;;;;;;5016844;28;44722;-61
2022/06/03 04:56:42;;;;;;;0.68;0.68;;;19.00;56.80;;;;;;5021161;28;43439;-61
2022/06/03 04:59:34;;;;;;;0.50;0.50;;;19.00;56.90;;;;;;5016441;28;43446;-61
2022/06/03 05:02:29;;;;;;;0.80;0.80;;;19.00;56.90;;;;;;5017921;28;43505;-62
2022/06/03 05:05:54;;;;;;;0.60;0.60;;;19.00;56.90;;;;;;5014233;28;44372;-61
2022/06/03 05:08:49;;;;;;;0.60;0.60;;;19.00;56.90;;;;;;4983821;28;43516;-62
2022/06/03 05:11:45;;;;;;;0.73;0.70;;;19.00;56.90;;;;;;4983160;28;43484;-61
2022/06/03 05:14:47;;;;;;;0.60;0.60;;;19.00;56.90;;;;;;5016802;28;43520;-61
2022/06/03 05:17:38;;;;;;;0.65;0.65;;;19.00;57.00;;;;;;5014667;28;44797;-61
2022/06/03 05:20:09;;;;;;;0.70;0.70;;;18.90;56.90;;;;;;5016374;28;43471;-61
2022/06/03 05:22:55;;;;;;;0.85;0.70;;;19.00;57.00;;;;;;5022554;28;44077;-61
2022/06/03 05:25:53;;;;;;;0.50;0.50;;;19.00;57.00;;;;;;5012479;28;43464;-61
2022/06/03 05:28:23;;;;;;;1.27;0.63;;;18.90;56.90;;;;;;5011767;28;44037;-66
2022/06/03 05:31:17;;;;;;;0.60;0.60;;;18.90;57.00;;;;;;5013219;28;43992;-62
2022/06/03 05:34:06;;;;;;;0.50;0.50;;;18.90;57.70;;;;;;5019632;28;44067;-62
2022/06/03 05:36:52;;;;;;;0.77;0.77;;;19.00;57.00;;;;;;5010368;28;43512;-62
2022/06/03 05:39:50;;;;;;;0.77;0.77;;;19.00;57.00;;;;;;5018363;28;44300;-62
2022/06/03 05:42:37;;;;;;;1.33;0.60;;;18.90;57.00;;;;;;5020346;28;43690;-62
2022/06/03 05:45:41;;;;;;;0.40;0.40;;;19.00;57.10;;;;;;5016116;28;43509;-62
2022/06/03 05:48:17;;;;;;;0.63;0.60;;;18.90;57.00;;;;;;4973998;28;43581;-62
2022/06/03 05:50:50;;;;;;;0.50;0.50;;;18.90;57.00;;;;;;5021719;28;44062;-62
2022/06/03 05:53:32;;;;;;;0.70;0.70;;;18.90;57.00;;;;;;5022698;28;43443;-61
2022/06/03 05:56:25;;;;;;;0.75;0.75;;;18.90;57.00;;;;;;5011548;28;43409;-62
2022/06/03 05:58:58;;;;;;;0.57;0.57;;;18.90;57.00;;;;;;5017188;28;43510;-62
2022/06/03 06:02:13;;;;;;;0.75;0.70;;;18.90;57.00;;;;;;5017879;28;44700;-62
2022/06/03 06:05:17;;;;;;;0.80;0.77;;;18.90;57.00;;;;;;5008424;28;43974;-62
2022/06/03 06:08:22;;;;;;;1.65;0.50;;;18.90;57.00;;;;;;5018687;28;43449;-62
2022/06/03 06:11:03;;;;;;;0.50;0.50;;;18.90;57.10;;;;;;5024798;28;43751;-63
2022/06/03 06:13:52;;;;;;;1.85;0.77;;;18.90;57.10;;;;;;5017879;28;43789;-62
2022/06/03 06:16:42;;;;;;;0.63;0.63;;;18.90;57.10;;;;;;5013730;28;43507;-62
2022/06/03 06:19:15;;;;;;;1.15;0.70;;;18.90;57.10;;;;;;5018305;28;43394;-63
2022/06/03 06:22:16;;;;;;;0.63;0.63;;;18.90;57.10;;;;;;5010838;28;43570;-62
2022/06/03 06:24:53;;;;;;;0.60;0.60;;;18.90;57.10;;;;;;5013944;28;44706;-62
2022/06/03 06:27:55;;;;;;;0.65;0.65;;;18.90;57.10;;;;;;5020880;28;43563;-62
2022/06/03 06:30:31;;;;;;;;;;;18.90;57.10;;;;;;5012350;28;43395;-62
2022/06/03 06:33:36;;;;;;;1.95;0.70;;;18.90;57.20;;;;;;5011239;28;43482;-62
2022/06/03 06:36:27;;;;;;;1.67;0.70;;;18.90;57.20;;;;;;5015674;28;45148;-62
2022/06/03 06:39:01;;;;;;;;;;;18.90;57.10;;;;;;5007057;28;43430;-61
2022/06/03 06:41:39;;;;;;;1.05;0.70;;;18.90;57.10;;;;;;5026411;28;43480;-62
2022/06/03 06:44:32;;;;;;;0.93;0.70;;;18.90;57.20;;;;;;5015339;28;43387;-61
2022/06/03 06:47:06;;;;;;;0.82;0.77;;;19.00;57.20;;;;;;5005149;28;43801;-62
2022/06/03 06:49:38;;;;;;;1.17;0.85;;;19.00;57.20;;;;;;5007683;28;43719;-62
2022/06/03 06:52:27;;;;;;;0.63;0.63;;;19.00;57.20;;;;;;5014896;28;43437;-62
2022/06/03 06:55:06;;;;;;;0.60;0.60;;;19.00;57.00;;;;;;5021299;28;43450;-61
2022/06/03 06:57:46;;;;;;;0.60;0.60;;;19.00;57.00;;;;;;5011541;28;43799;-62
2022/06/03 07:00:32;;;;;;;1.20;0.63;;;19.00;57.00;;;;;;5010647;28;43753;-62
2022/06/03 07:03:10;;;;;;;0.60;0.60;;;19.00;57.00;;;;;;5017557;28;44033;-62
2022/06/03 07:05:50;;;;;;;1.10;1.00;;;19.00;57.00;;;;;;5022290;28;43502;-61
2022/06/03 07:08:26;;;;;;;1.20;0.90;;;19.00;57.00;;;;;;5007661;28;43768;-61
2022/06/03 07:11:08;;;;;;;0.77;0.70;;;19.00;57.00;;;;;;5017398;28;44086;-62
2022/06/03 07:13:47;;;;;;;0.60;0.60;;;19.00;57.00;;;;;;5019534;28;43481;-62
2022/06/03 07:20:08;;;;;;;1.55;0.77;;;19.00;56.90;;;;;;5015224;28;44970;-62
2022/06/03 07:22:44;;;;;;;0.98;0.70;;;19.00;56.90;;;;;;5016578;28;43483;-62
2022/06/03 07:25:24;;;;;;;0.50;0.50;;;19.00;56.90;;;;;;5023541;28;43419;-61
2022/06/03 07:28:12;;;;;;;0.77;0.77;;;19.00;56.90;;;;;;5009088;28;43411;-62
2022/06/03 07:30:53;;;;;;;0.60;0.60;;;19.00;56.90;;;;;;5016538;28;43783;-61
2022/06/03 07:33:30;;;;;;;0.77;0.77;;;19.00;56.90;;;;;;5020696;28;43735;-62
2022/06/03 07:36:22;;;;;;;0.88;0.88;;;19.00;56.90;;;;;;5006824;28;43460;-62
2022/06/03 07:38:57;;;;;;;0.63;0.63;;;19.00;56.90;;;;;;5009917;28;43698;-62
2022/06/03 07:41:39;;;;;;;0.70;0.70;;;19.00;57.00;;;;;;5016712;28;44933;-62
2022/06/03 07:44:18;;;;;;;1.13;0.85;;;19.00;56.80;;;;;;5015613;28;43492;-62
2022/06/03 07:46:54;;;;;;;0.77;0.77;;;19.10;56.90;;;;;;5011224;28;43530;-61
2022/06/03 07:49:24;;;;;;;0.65;0.57;;;19.10;56.90;;;;;;5019943;28;43563;-62
2022/06/03 07:51:58;;;;;;;1.05;0.75;;;19.00;56.80;;;;;;5053512;28;44047;-61
2022/06/03 07:54:34;;;;;;;0.75;0.68;;;19.10;56.90;;;;;;5011714;28;43442;-61
2022/06/03 07:57:07;;;;;;;0.60;0.60;;;19.10;57.50;;;;;;5013913;28;43469;-61
2022/06/03 07:59:38;;;;;;;1.23;0.80;;;19.00;56.80;;;;;;5017728;28;44039;-61
2022/06/03 08:02:17;;;;;;;0.82;0.82;;;19.10;56.80;;;;;;5016069;28;44205;-62
2022/06/03 08:04:48;;;;;;;0.60;0.60;;;19.10;56.80;;;;;;5016233;28;43487;-61
2022/06/03 08:13:04;;;;;;;0.65;0.60;;;19.10;56.70;;;;;;5010560;28;44160;-61
2022/06/03 08:15:35;;;;;;;0.70;0.70;;;19.10;56.70;;;;;;5014217;28;43476;-61
2022/06/03 08:18:05;;;;;;;0.63;0.63;;;19.10;56.70;;;;;;5022899;28;43494;-62
2022/06/03 08:20:58;;;;;;;0.80;0.80;;;19.20;56.70;;;;;;5025174;28;43559;-62
2022/06/03 08:23:32;;;;;;;0.82;0.80;;;19.20;56.60;;;;;;5008236;28;44706;-61
2022/06/03 08:26:13;;;;;;;0.95;0.68;;;19.20;56.70;;;;;;5014328;28;43744;-62
2022/06/03 08:28:44;;;;;;;;;;;19.20;56.70;;;;;;5020906;28;43487;-61
2022/06/03 08:31:12;;;;;;;1.10;0.70;;;19.20;56.70;;;;;;5008999;28;43506;-62
2022/06/03 08:33:42;;;;;;;0.57;0.57;;;19.20;56.80;;;;;;5015693;28;45100;-62
2022/06/03 08:36:14;;;;;;;0.90;0.90;;;19.20;56.80;;;;;;5021376;28;44028;-62
2022/06/03 08:38:52;;;;;;;2.97;1.00;;;19.20;56.70;;;;;;5019657;28;43492;-62
2022/06/03 08:41:41;;;;;;;0.63;0.63;;;19.20;56.70;;;;;;5009793;28;43929;-62
2022/06/03 08:44:27;;;;;;;0.80;0.70;;;19.20;56.60;;;;;;5018466;28;43613;-61
2022/06/03 08:47:17;;;;;;;0.95;0.80;;;19.30;56.80;;;;;;5023444;28;43431;-62
2022/06/03 08:50:06;;;;;;;1.07;0.90;;;19.30;56.80;;;;;;5009654;28;43395;-61
2022/06/03 08:52:39;;;;;;;0.82;0.80;;;19.30;56.80;;;;;;5012467;28;43531;-62
2022/06/03 08:55:28;;;;;;;1.30;0.70;;;19.30;56.80;;;;;;5021578;28;44986;-62
2022/06/03 08:58:06;;;;;;;0.73;0.73;;;19.30;56.70;;;;;;5024885;28;43814;-62
2022/06/03 09:00:55;;;;;;;1.63;0.70;;;19.30;56.70;;;;;;5010969;28;43469;-62
2022/06/03 09:03:25;;;;;;;0.82;0.82;;;19.30;56.70;;;;;;5011386;28;43546;-62
2022/06/03 09:06:06;;;;;;;0.70;0.70;;;19.30;56.70;;;;;;5018875;28;43879;-63
2022/06/03 09:08:43;;;;;;;0.70;0.70;;;19.30;56.80;;;;;;5013838;28;43986;-62
2022/06/03 09:11:37;;;;;;;0.80;0.70;;;19.30;56.70;;;;;;5023370;28;43544;-62
2022/06/03 09:14:18;;;;;;;1.30;0.73;;;19.30;56.70;;;;;;5023791;28;43649;-62
2022/06/03 09:16:50;;;;;;;0.68;0.68;;;19.40;56.90;;;;;;5024441;28;44179;-63
2022/06/03 09:19:27;;;;;;;0.80;0.70;;;19.30;56.70;;;;;;5016008;28;44001;-62
2022/06/03 09:22:06;;;;;;;0.60;0.60;;;19.40;56.90;;;;;;5016123;28;44031;-62
2022/06/03 09:24:40;;;;;;;0.70;0.70;;;19.40;56.90;;;;;;5025257;28;43531;-62
2022/06/03 09:27:10;;;;;;;0.73;0.73;;;19.40;56.90;;;;;;5025933;28;43885;-62
2022/06/03 09:29:39;;;;;;;0.85;0.80;;;19.40;56.90;;;;;;5015446;28;43432;-62
2022/06/03 09:32:09;;;;;;;0.95;0.70;;;19.40;56.70;;;;;;5021092;28;43499;-63
2022/06/03 09:34:42;;;;;;;1.15;0.80;;;19.40;56.70;;;;;;5014722;28;43524;-63
2022/06/03 09:37:17;;;;;;;1.30;0.80;;;19.40;56.60;;;;;;5014456;28;44068;-62
2022/06/03 09:39:49;;;;;;;1.20;0.70;;;19.40;56.70;;;;;;5014492;28;43444;-62
2022/06/03 09:42:21;;;;;;;1.38;0.80;;;19.50;56.70;;;;;;5030319;28;43474;-62
2022/06/03 09:44:51;;;;;;;1.00;0.90;;;19.40;56.60;;;;;;5028766;28;43489;-63
2022/06/03 09:47:22;;;;;;;1.35;0.60;;;19.50;56.60;;;;;;5018036;28;44158;-62
2022/06/03 09:49:52;;;;;;;0.55;0.55;;;19.50;56.80;;;;;;5017709;28;43467;-62
2022/06/03 09:52:24;;;;;;;0.83;0.73;;;19.50;56.70;;;;;;5022306;28;44050;-62
2022/06/03 09:54:54;;;;;;;0.93;0.70;;;19.50;56.70;;;;;;5025025;28;43515;-62
2022/06/03 09:57:35;;;;;;;1.50;0.90;;;19.50;56.70;;;;;;5010795;28;44042;-62
2022/06/03 10:00:15;;;;;;;0.70;0.70;;;19.50;56.70;;;;;;5012918;28;43442;-63
2022/06/03 10:02:44;;;;;;;0.98;0.80;;;19.60;57.00;;;;;;5012065;28;43449;-63
2022/06/03 10:05:16;;;;;;;0.93;0.80;;;19.60;56.80;;;;;;5011190;28;43524;-63
2022/06/03 10:07:46;;;;;;;0.65;0.65;;;19.60;56.70;;;;;;5018525;28;43971;-62
2022/06/03 10:13:08;;;;;;;0.75;0.68;;;19.60;56.70;;;;;;5009587;28;43443;-62
2022/06/03 10:15:53;;;;;;;0.95;0.77;;;19.70;56.90;;;;;;5014209;28;43646;-62
2022/06/03 10:18:33;;;;;;;1.88;0.77;;;19.70;56.90;;;;;;5021639;28;44013;-63
2022/06/03 10:21:14;;;;;;;0.60;0.60;;;19.70;57.00;;;;;;5010591;28;43464;-63
2022/06/03 10:23:46;;;;;;;0.90;0.70;;;19.70;56.90;;;;;;5011863;28;43402;-63
2022/06/03 10:26:26;;;;;;;0.73;0.63;;;19.70;56.90;;;;;;5019661;28;43515;-63
2022/06/03 10:28:58;;;;;;;0.90;0.90;;;19.70;57.00;;;;;;5018248;28;44694;-63
2022/06/03 10:31:34;;;;;;;0.77;0.70;;;19.80;57.10;;;;;;5004138;28;43513;-63
2022/06/03 10:34:11;;;;;;;1.67;0.80;;;19.80;56.90;;;;;;5019099;28;43517;-63
2022/06/03 10:36:43;;;;;;;1.45;0.80;;;19.80;56.90;;;;;;5018248;28;43602;-63
2022/06/03 10:39:18;;;;;;;1.42;0.82;;;19.80;57.00;;;;;;5016069;28;43890;-63
2022/06/03 10:41:49;;;;;;;0.85;0.82;;;19.80;56.90;;;;;;5014040;28;43488;-63
2022/06/03 10:44:36;;;;;;;1.10;0.80;;;19.90;57.00;;;;;;5016073;28;43561;-63
2022/06/03 10:47:05;;;;;;;0.73;0.73;;;19.80;56.90;;;;;;5012596;28;43502;-63
2022/06/03 10:49:48;;;;;;;2.10;1.15;;;19.90;56.90;;;;;;5012232;28;45021;-63
2022/06/03 11:01:27;;;;;;;0.88;0.77;;;19.90;56.80;;;;;;5011041;28;44169;-63
2022/06/03 11:03:56;;;;;;;1.50;1.00;;;20.00;56.90;;;;;;5016977;28;43975;-63
2022/06/03 11:06:34;;;;;;;0.95;0.88;;;20.00;57.10;;;;;;5017865;28;43383;-63
2022/06/03 11:09:06;;;;;;;1.00;0.70;;;20.00;56.90;;;;;;5011199;28;43495;-63
2022/06/03 11:11:39;;;;;;;0.75;0.75;;;20.00;56.80;;;;;;5016107;28;43805;-63
2022/06/03 11:14:25;;;;;;;1.05;0.95;;;20.10;56.90;;;;;;5017721;28;43482;-63
2022/06/03 11:17:09;;;;;;;0.60;0.60;;;20.10;56.80;;;;;;5013173;28;43432;-63
2022/06/03 11:19:58;;;;;;;0.70;0.70;;;20.10;57.00;;;;;;5011455;28;43490;-62
2022/06/03 11:22:30;;;;;;;0.80;0.80;;;20.20;57.00;;;;;;5016257;28;43945;-63
2022/06/03 11:25:13;;;;;;;0.80;0.80;;;20.20;57.00;;;;;;5022825;28;43969;-63
2022/06/03 11:27:49;;;;;;;1.27;0.68;;;20.20;56.90;;;;;;5013204;28;43534;-63
2022/06/03 11:30:39;;;;;;;0.80;0.80;;;20.20;57.00;;;;;;5013474;28;43564;-63
2022/06/03 11:33:40;;;;;;;0.80;0.80;;;20.30;57.10;;;;;;5020406;28;44087;-63
2022/06/03 11:36:17;;;;;;;1.35;0.77;;;20.30;57.10;;;;;;5005592;28;43517;-63
2022/06/03 11:39:10;;;;;;;1.52;0.80;;;20.30;57.10;;;;;;5018261;28;43471;-62
2022/06/03 11:41:47;;;;;;;0.98;0.82;;;20.30;57.00;;;;;;5019915;28;43655;-63
2022/06/03 11:44:27;;;;;;;0.90;0.73;;;20.40;57.20;;;;;;5026381;28;43788;-63
2022/06/03 11:47:16;;;;;;;0.68;0.68;;;20.40;57.00;;;;;;5016561;28;43469;-63
2022/06/03 11:49:45;;;;;;;0.70;0.70;;;20.40;56.90;;;;;;5018606;28;43427;-63
2022/06/03 11:52:12;;;;;;;0.65;0.65;;;20.40;56.90;;;;;;5025496;28;44082;-63
2022/06/03 11:54:40;;;;;;;0.50;0.50;;;20.50;56.70;;;;;;5014600;28;44663;-63
2022/06/03 11:57:08;;;;;;;0.60;0.60;;;20.50;56.80;;;;;;5015881;28;43515;-62
2022/06/03 11:59:47;;;;;;;1.00;0.80;;;20.50;56.90;;;;;;5019590;28;43486;-64
2022/06/03 12:03:07;;;;;;;0.88;0.88;;;20.60;56.90;;;;;;5013573;28;43455;-63
2022/06/03 12:05:43;;;;;;;0.70;0.60;;;20.60;56.80;;;;;;4999952;28;45186;-63
2022/06/03 12:08:43;;;;;;;0.60;0.60;;;20.60;56.80;;;;;;5014111;28;43518;-63
2022/06/03 12:14:36;;;;;;;0.85;0.70;;;20.70;56.70;;;;;;5015098;28;43509;-62
2022/06/03 12:17:06;;;;;;;0.77;0.77;;;20.70;56.70;;;;;;5015175;28;43796;-63
2022/06/03 12:19:49;;;;;;;1.13;0.70;;;20.80;56.70;;;;;;5024270;28;43800;-62
2022/06/03 12:22:33;;;;;;;0.90;0.70;;;20.80;56.70;;;;;;5013922;28;43430;-63
2022/06/03 12:25:56;;;;;;;0.57;0.57;;;20.80;56.70;;;;;;5014322;28;43628;-63
2022/06/03 12:28:52;;;;;;;1.30;0.70;;;20.90;56.70;;;;;;5006536;28;44704;-63
2022/06/03 12:31:19;;;;;;;0.60;0.60;;;20.90;56.60;;;;;;5006745;28;43447;-62
2022/06/03 12:34:06;;;;;;;0.60;0.60;;;20.90;56.50;;;;;;5014693;28;43494;-63
2022/06/03 12:36:51;;;;;;;1.25;1.15;;;21.00;56.50;;;;;;5020792;28;43440;-62
2022/06/03 12:39:31;;;;;;;0.80;0.80;;;21.00;56.50;;;;;;5014903;28;44681;-62
2022/06/03 12:42:02;;;;;;;0.70;0.70;;;21.00;56.50;;;;;;5028497;28;43474;-62
2022/06/03 12:44:33;;;;;;;0.90;0.70;;;21.00;56.40;;;;;;5013014;28;43466;-64
2022/06/03 12:47:18;;;;;;;0.80;0.80;;;21.10;56.50;;;;;;5014899;28;43483;-63
2022/06/03 12:49:48;;;;;;;0.70;0.63;;;21.10;56.30;;;;;;5007211;28;43799;-62
2022/06/03 12:52:22;;;;;;;0.98;0.70;;;21.10;56.30;;;;;;5011615;28;43491;-63
2022/06/03 12:55:01;;;;;;;0.80;0.75;;;21.10;56.30;;;;;;5017282;28;43430;-62
2022/06/03 12:57:53;;;;;;;0.68;0.68;;;21.10;56.20;;;;;;5023170;28;43452;-62
2022/06/03 13:00:21;;;;;;;0.60;0.60;;;21.20;56.20;;;;;;5009931;28;43775;-63
2022/06/03 13:03:01;;;;;;;0.70;0.60;;;21.20;56.20;;;;;;5016758;28;43590;-63
2022/06/03 13:05:42;;;;;;;0.80;0.73;;;21.20;56.20;;;;;;5022605;28;43444;-61
2022/06/03 13:08:26;;;;;;;0.93;0.75;;;21.20;56.10;;;;;;5008576;28;43490;-61
2022/06/03 13:11:08;;;;;;;0.95;0.75;;;21.20;56.10;;;;;;5024495;28;44966;-61
2022/06/03 13:13:46;;;;;;;1.10;0.80;;;21.30;56.20;;;;;;5019924;28;43570;-61
2022/06/03 13:16:24;;;;;;;0.98;0.57;;;21.30;56.10;;;;;;5006181;28;43436;-61
2022/06/03 13:18:53;;;;;;;0.98;0.70;;;21.30;56.10;;;;;;5010812;28;43483;-61
2022/06/03 13:21:23;;;;;;;0.82;0.70;;;21.30;56.20;;;;;;5017320;28;44961;-61
2022/06/03 13:23:50;;;;;;;1.65;0.90;;;21.40;56.10;;;;;;5017892;28;43493;-61
2022/06/03 13:26:23;;;;;;;1.23;0.93;;;21.40;56.10;;;;;;5017010;28;43991;-61
2022/06/03 13:29:07;;;;;;;2.13;0.70;;;21.40;56.10;;;;;;5013450;28;43471;-61
2022/06/03 13:31:40;;;;;;;1.00;0.70;;;21.40;56.10;;;;;;5015731;28;43738;-61
2022/06/03 13:34:08;;;;;;;2.03;0.90;;;21.50;56.20;;;;;;5011951;28;43682;-62
2022/06/03 13:36:53;;;;;;;1.05;0.95;;;21.50;56.10;;;;;;5013730;28;43472;-61
2022/06/03 13:39:24;;;;;;;0.85;0.82;;;21.50;56.10;;;;;;5018744;28;43462;-61
2022/06/03 13:45:01;;;;;;;1.00;0.90;;;21.60;56.30;;;;;;5016126;28;43450;-61
2022/06/03 13:47:34;;;;;;;0.70;0.70;;;21.70;56.30;;;;;;5014070;28;43462;-61
2022/06/03 13:50:04;;;;;;;0.95;0.70;;;21.70;56.20;;;;;;5016875;28;43605;-61
2022/06/03 13:52:34;;;;;;;1.02;0.77;;;21.70;56.10;;;;;;5021660;28;44040;-62
2022/06/03 13:55:48;;;;;;;0.60;0.60;;;21.80;56.10;;;;;;5010235;28;43710;-62
2022/06/03 13:58:39;;;;;;;0.70;0.70;;;21.80;56.80;;;;;;5015917;28;43486;-61
2022/06/03 14:01:33;;;;;;;0.73;0.70;;;21.90;55.90;;;;;;5017919;28;43633;-61
2022/06/03 14:04:45;;;;;;;0.60;0.50;;;21.90;56.00;;;;;;5007669;28;43915;-61
2022/06/03 14:07:13;;;;;;;0.80;0.73;;;22.00;55.90;;;;;;4978324;28;44063;-61
2022/06/03 14:09:51;;;;;;;0.80;0.77;;;21.90;55.90;;;;;;5023598;28;43460;-61
2022/06/03 14:12:26;;;;;;;1.85;0.80;;;22.00;55.70;;;;;;5011227;28;43516;-62
2022/06/03 14:15:05;;;;;;;1.88;0.70;;;22.00;55.90;;;;;;5009545;28;44191;-62
2022/06/03 14:17:55;;;;;;;2.72;0.68;;;22.00;55.80;;;;;;5017155;28;43547;-62
2022/06/03 14:20:37;;;;;;;1.40;0.90;;;22.00;55.80;;;;;;5022175;28;43458;-62
2022/06/03 14:23:32;;;;;;;0.85;0.75;;;22.10;55.90;;;;;;5008172;28;43563;-61
2022/06/03 14:26:08;;;;;;;0.93;0.70;;;22.10;55.90;;;;;;5011113;28;43755;-62
2022/06/03 14:28:41;;;;;;;1.40;0.80;;;22.10;55.90;;;;;;5019318;28;43777;-61
2022/06/03 14:31:25;;;;;;;0.57;0.57;;;22.10;55.80;;;;;;5015832;28;43567;-62
2022/06/03 14:33:56;;;;;;;0.63;0.63;;;22.10;55.80;;;;;;5020225;28;43545;-62
2022/06/03 14:36:26;;;;;;;0.70;0.70;;;22.20;55.80;;;;;;5016915;28;44642;-62
2022/06/03 14:39:22;;;;;;;0.50;0.50;;;22.20;55.80;;;;;;5009196;28;43988;-62
2022/06/03 14:41:54;;;;;;;0.70;0.70;;;22.20;55.80;;;;;;5007866;28;43546;-62